createdAt,value
2018-12-12T00:00:56.655Z,1.50
2018-12-12T00:02:03.469Z,1.40
2018-12-12T00:03:11.623Z,1.40
2018-12-12T00:04:18.832Z,1.40
2018-12-12T00:05:24.039Z,1.40
2018-12-12T00:06:29.090Z,1.40
2018-12-12T00:07:34.214Z,1.40
2018-12-12T00:08:39.213Z,1.50
2018-12-12T00:09:44.115Z,1.50
2018-12-12T00:10:49.599Z,1.50
2018-12-12T00:11:55.311Z,1.50
2018-12-12T00:13:01.249Z,1.50
2018-12-12T00:14:06.436Z,1.50
2018-12-12T00:15:11.436Z,1.50
2018-12-12T00:16:16.198Z,1.60
2018-12-12T00:17:21.129Z,1.50
2018-12-12T00:18:26.187Z,1.50
2018-12-12T00:19:31.489Z,1.50
2018-12-12T00:20:36.587Z,1.50
2018-12-12T00:21:41.899Z,1.60
2018-12-12T00:22:46.878Z,1.60
2018-12-12T00:23:51.441Z,1.60
2018-12-12T00:24:56.482Z,1.60
2018-12-12T00:26:01.351Z,1.60
2018-12-12T00:27:05.973Z,1.60
2018-12-12T00:28:10.885Z,1.70
2018-12-12T00:29:15.811Z,1.70
2018-12-12T00:30:20.607Z,1.60
2018-12-12T00:31:25.642Z,1.60
2018-12-12T00:32:30.753Z,1.60
2018-12-12T00:33:35.929Z,1.60
2018-12-12T00:34:41.090Z,1.70
2018-12-12T00:35:45.963Z,1.70
2018-12-12T00:36:50.862Z,1.70
2018-12-12T00:37:55.951Z,1.70
2018-12-12T00:39:00.632Z,1.70
2018-12-12T00:40:08.016Z,1.70
2018-12-12T00:41:13.740Z,1.70
2018-12-12T00:42:18.600Z,1.70
2018-12-12T00:43:24.111Z,1.70
2018-12-12T00:44:29.165Z,1.70
2018-12-12T00:45:34.199Z,1.70
2018-12-12T00:46:39.368Z,1.80
2018-12-12T00:47:44.184Z,1.80
2018-12-12T00:48:49.364Z,1.90
2018-12-12T00:49:54.413Z,1.80
2018-12-12T00:50:59.246Z,1.80
2018-12-12T00:52:04.321Z,1.70
2018-12-12T00:53:09.504Z,1.70
2018-12-12T00:54:14.732Z,1.80
2018-12-12T00:55:20.542Z,1.80
2018-12-12T00:56:25.482Z,1.90
2018-12-12T00:57:30.613Z,1.80
2018-12-12T00:58:35.681Z,1.80
2018-12-12T00:59:40.619Z,1.80
2018-12-12T01:00:45.666Z,1.70
2018-12-12T01:01:50.474Z,1.70
2018-12-12T01:02:55.134Z,1.70
2018-12-12T01:03:59.759Z,1.70
2018-12-12T01:05:05.501Z,1.80
2018-12-12T01:06:10.563Z,1.90
2018-12-12T01:07:15.731Z,2.00
2018-12-12T01:08:20.731Z,2.00
2018-12-12T01:09:25.476Z,2.00
2018-12-12T01:10:30.034Z,2.00
2018-12-12T01:11:40.461Z,1.90
2018-12-12T01:12:45.450Z,1.90
2018-12-12T01:13:50.770Z,1.90
2018-12-12T01:14:56.104Z,1.90
2018-12-12T01:16:01.626Z,1.70
2018-12-12T01:17:06.503Z,1.60
2018-12-12T01:18:11.850Z,1.60
2018-12-12T01:19:16.741Z,1.70
2018-12-12T01:20:21.853Z,1.70
2018-12-12T01:21:27.388Z,1.70
2018-12-12T01:22:32.696Z,1.60
2018-12-12T01:23:37.484Z,1.60
2018-12-12T01:24:42.185Z,1.60
2018-12-12T01:25:47.386Z,1.60
2018-12-12T01:26:52.405Z,1.60
2018-12-12T01:27:57.361Z,1.70
2018-12-12T01:29:02.521Z,1.80
2018-12-12T01:30:07.529Z,1.80
2018-12-12T01:31:12.798Z,1.90
2018-12-12T01:32:17.698Z,1.90
2018-12-12T01:33:22.831Z,1.90
2018-12-12T01:34:27.791Z,1.90
2018-12-12T01:35:33.349Z,1.80
2018-12-12T01:36:38.118Z,1.70
2018-12-12T01:37:43.352Z,1.70
2018-12-12T01:38:48.704Z,1.70
2018-12-12T01:39:54.968Z,1.70
2018-12-12T01:41:00.102Z,1.70
2018-12-12T01:42:05.838Z,1.70
2018-12-12T01:43:10.637Z,1.70
2018-12-12T01:44:15.699Z,1.70
2018-12-12T01:45:20.665Z,1.70
2018-12-12T01:46:26.243Z,1.80
2018-12-12T01:47:31.378Z,1.90
2018-12-12T01:48:36.416Z,1.80
2018-12-12T01:49:41.550Z,1.80
2018-12-12T01:50:46.551Z,1.80
2018-12-12T01:51:51.249Z,1.70
2018-12-12T01:52:56.007Z,1.60
2018-12-12T01:54:01.464Z,1.60
2018-12-12T01:55:06.266Z,1.60
2018-12-12T01:56:11.478Z,1.60
2018-12-12T01:57:16.624Z,1.60
2018-12-12T01:58:21.796Z,1.60
2018-12-12T01:59:26.986Z,1.70
2018-12-12T02:00:31.756Z,1.60
2018-12-12T02:01:37.089Z,1.60
2018-12-12T02:02:41.865Z,1.70
2018-12-12T02:03:46.902Z,1.60
2018-12-12T02:04:52.176Z,1.60
2018-12-12T02:05:57.488Z,1.60
2018-12-12T02:07:02.559Z,1.60
2018-12-12T02:08:07.330Z,1.60
2018-12-12T02:09:12.231Z,1.60
2018-12-12T02:10:17.353Z,1.60
2018-12-12T02:11:22.811Z,1.70
2018-12-12T02:12:27.855Z,1.70
2018-12-12T02:13:35.504Z,1.70
2018-12-12T02:14:40.352Z,1.70
2018-12-12T02:15:45.322Z,1.70
2018-12-12T02:16:50.561Z,1.60
2018-12-12T02:17:55.675Z,1.60
2018-12-12T02:19:00.679Z,1.60
2018-12-12T02:20:05.692Z,1.60
2018-12-12T02:21:10.362Z,1.50
2018-12-12T02:22:15.179Z,1.50
2018-12-12T02:23:20.418Z,1.50
2018-12-12T02:24:26.545Z,1.50
2018-12-12T02:25:31.371Z,1.50
2018-12-12T02:26:36.159Z,1.50
2018-12-12T02:27:41.204Z,1.50
2018-12-12T02:28:45.836Z,1.50
2018-12-12T02:29:50.552Z,1.40
2018-12-12T02:30:55.415Z,1.40
2018-12-12T02:32:01.113Z,1.40
2018-12-12T02:33:06.125Z,1.40
2018-12-12T02:34:11.248Z,1.50
2018-12-12T02:35:16.807Z,1.40
2018-12-12T02:36:21.993Z,1.40
2018-12-12T02:37:26.482Z,1.40
2018-12-12T02:38:31.651Z,1.40
2018-12-12T02:39:36.412Z,1.40
2018-12-12T02:40:41.391Z,1.50
2018-12-12T02:41:46.168Z,1.50
2018-12-12T02:42:51.363Z,1.40
2018-12-12T02:43:56.634Z,1.40
2018-12-12T02:45:01.650Z,1.50
2018-12-12T02:46:07.362Z,1.50
2018-12-12T02:47:12.026Z,1.50
2018-12-12T02:48:17.502Z,1.50
2018-12-12T02:49:23.034Z,1.50
2018-12-12T02:50:28.109Z,1.50
2018-12-12T02:51:33.190Z,1.50
2018-12-12T02:52:38.628Z,1.60
2018-12-12T02:53:43.667Z,1.50
2018-12-12T02:54:48.741Z,1.50
2018-12-12T02:55:53.562Z,1.50
2018-12-12T02:56:58.499Z,1.50
2018-12-12T02:58:03.619Z,1.50
2018-12-12T02:59:08.735Z,1.50
2018-12-12T03:00:13.634Z,1.50
2018-12-12T03:01:20.935Z,1.50
2018-12-12T03:02:26.475Z,1.50
2018-12-12T03:03:31.463Z,1.50
2018-12-12T03:04:36.303Z,1.50
2018-12-12T03:05:41.536Z,1.50
2018-12-12T03:06:46.457Z,1.50
2018-12-12T03:07:52.637Z,1.60
2018-12-12T03:08:57.801Z,1.50
2018-12-12T03:10:02.716Z,1.50
2018-12-12T03:11:08.168Z,1.50
2018-12-12T03:12:13.138Z,1.50
2018-12-12T03:13:18.065Z,1.50
2018-12-12T03:14:23.224Z,1.60
2018-12-12T03:15:28.426Z,1.60
2018-12-12T03:16:33.642Z,1.60
2018-12-12T03:17:38.381Z,1.70
2018-12-12T03:18:43.794Z,1.60
2018-12-12T03:19:48.484Z,1.60
2018-12-12T03:20:54.150Z,1.50
2018-12-12T03:21:59.296Z,1.60
2018-12-12T03:23:04.459Z,1.60
2018-12-12T03:24:10.448Z,1.60
2018-12-12T03:25:15.445Z,1.60
2018-12-12T03:26:21.125Z,1.60
2018-12-12T03:27:26.347Z,1.60
2018-12-12T03:28:31.648Z,1.60
2018-12-12T03:29:36.920Z,1.60
2018-12-12T03:30:41.808Z,1.50
2018-12-12T03:31:45.974Z,1.50
2018-12-12T03:32:50.271Z,1.50
2018-12-12T03:33:55.499Z,1.60
2018-12-12T03:35:00.803Z,1.60
2018-12-12T03:36:05.936Z,1.60
2018-12-12T03:37:11.153Z,1.70
2018-12-12T03:38:16.441Z,1.70
2018-12-12T03:39:21.611Z,1.70
2018-12-12T03:40:26.631Z,1.60
2018-12-12T03:41:31.939Z,1.60
2018-12-12T03:42:36.852Z,1.50
2018-12-12T03:43:41.720Z,1.50
2018-12-12T03:44:48.785Z,1.60
2018-12-12T03:45:54.125Z,1.70
2018-12-12T03:46:59.306Z,1.60
2018-12-12T03:48:04.632Z,1.70
2018-12-12T03:49:10.584Z,1.70
2018-12-12T03:50:15.588Z,1.60
2018-12-12T03:51:20.872Z,1.60
2018-12-12T03:52:26.095Z,1.80
2018-12-12T03:53:31.177Z,1.70
2018-12-12T03:54:36.434Z,1.70
2018-12-12T03:55:41.466Z,1.80
2018-12-12T03:56:46.626Z,1.80
2018-12-12T03:57:52.215Z,1.80
2018-12-12T03:58:57.220Z,1.70
2018-12-12T04:00:02.630Z,1.70
2018-12-12T04:01:08.068Z,1.60
2018-12-12T04:02:13.185Z,1.60
2018-12-12T04:03:18.445Z,1.60
2018-12-12T04:04:23.588Z,1.60
2018-12-12T04:05:28.343Z,1.60
2018-12-12T04:06:33.381Z,1.60
2018-12-12T04:07:38.150Z,1.70
2018-12-12T04:08:43.029Z,1.70
2018-12-12T04:09:47.972Z,1.70
2018-12-12T04:10:52.838Z,1.70
2018-12-12T04:11:58.446Z,1.70
2018-12-12T04:13:03.717Z,1.70
2018-12-12T04:14:08.655Z,1.80
2018-12-12T04:15:13.850Z,1.70
2018-12-12T04:16:19.179Z,1.80
2018-12-12T04:17:24.337Z,1.70
2018-12-12T04:18:29.620Z,1.70
2018-12-12T04:19:34.457Z,1.80
2018-12-12T04:20:41.229Z,1.90
2018-12-12T04:21:46.031Z,1.80
2018-12-12T04:22:50.622Z,1.80
2018-12-12T04:23:55.880Z,1.80
2018-12-12T04:25:02.024Z,1.80
2018-12-12T04:26:07.278Z,1.80
2018-12-12T04:27:12.213Z,1.90
2018-12-12T04:28:17.550Z,1.70
2018-12-12T04:29:22.703Z,1.70
2018-12-12T04:30:27.927Z,1.60
2018-12-12T04:31:32.826Z,1.70
2018-12-12T04:32:37.844Z,1.70
2018-12-12T04:33:42.882Z,1.80
2018-12-12T04:34:47.834Z,1.80
2018-12-12T04:35:53.055Z,1.90
2018-12-12T04:36:58.313Z,1.90
2018-12-12T04:38:02.891Z,1.90
2018-12-12T04:39:07.791Z,1.90
2018-12-12T04:40:12.867Z,1.80
2018-12-12T04:41:18.740Z,1.80
2018-12-12T04:42:23.638Z,1.70
2018-12-12T04:43:28.870Z,1.70
2018-12-12T04:44:34.040Z,1.60
2018-12-12T04:45:38.904Z,1.60
2018-12-12T04:46:43.899Z,1.60
2018-12-12T04:47:50.879Z,1.60
2018-12-12T04:48:56.770Z,1.50
2018-12-12T04:50:01.647Z,1.40
2018-12-12T04:51:06.645Z,1.50
2018-12-12T04:52:11.906Z,1.40
2018-12-12T04:53:16.924Z,1.40
2018-12-12T04:54:22.111Z,1.40
2018-12-12T04:55:27.469Z,1.40
2018-12-12T04:56:32.998Z,1.30
2018-12-12T04:57:38.174Z,1.40
2018-12-12T04:58:43.040Z,1.30
2018-12-12T04:59:47.595Z,1.20
2018-12-12T05:00:52.542Z,1.20
2018-12-12T05:01:57.262Z,1.20
2018-12-12T05:03:02.629Z,1.20
2018-12-12T05:04:07.678Z,1.20
2018-12-12T05:05:12.776Z,1.40
2018-12-12T05:06:17.802Z,1.30
2018-12-12T05:07:24.449Z,1.30
2018-12-12T05:08:29.447Z,1.30
2018-12-12T05:09:34.612Z,1.30
2018-12-12T05:10:39.780Z,1.40
2018-12-12T05:11:44.998Z,1.30
2018-12-12T05:12:49.983Z,1.30
2018-12-12T05:13:54.923Z,1.30
2018-12-12T05:14:59.986Z,1.30
2018-12-12T05:16:05.276Z,1.20
2018-12-12T05:17:10.396Z,1.20
2018-12-12T05:18:15.515Z,1.20
2018-12-12T05:19:20.255Z,1.20
2018-12-12T05:20:25.096Z,1.20
2018-12-12T05:21:30.282Z,1.30
2018-12-12T05:22:35.251Z,1.20
2018-12-12T05:23:40.435Z,1.20
2018-12-12T05:24:45.238Z,1.20
2018-12-12T05:25:50.164Z,1.10
2018-12-12T05:26:55.263Z,1.10
2018-12-12T05:28:00.258Z,1.10
2018-12-12T05:29:05.100Z,1.10
2018-12-12T05:30:10.158Z,1.10
2018-12-12T05:31:15.296Z,1.10
2018-12-12T05:32:21.299Z,1.10
2018-12-12T05:33:26.444Z,1.00
2018-12-12T05:34:31.202Z,1.00
2018-12-12T05:35:36.223Z,1.00
2018-12-12T05:36:41.100Z,1.10
2018-12-12T05:37:52.000Z,1.20
2018-12-12T05:38:53.888Z,1.20
2018-12-12T05:39:59.453Z,1.10
2018-12-12T05:41:04.612Z,1.10
2018-12-12T05:42:09.624Z,1.10
2018-12-12T05:43:15.153Z,1.00
2018-12-12T05:44:21.571Z,1.00
2018-12-12T05:45:27.456Z,0.90
2018-12-12T05:46:32.536Z,1.00
2018-12-12T05:47:37.440Z,1.00
2018-12-12T05:48:42.055Z,1.00
2018-12-12T05:49:46.937Z,1.00
2018-12-12T05:50:52.614Z,1.10
2018-12-12T05:51:57.711Z,1.20
2018-12-12T05:53:04.002Z,1.20
2018-12-12T05:54:09.546Z,1.20
2018-12-12T05:55:14.426Z,1.20
2018-12-12T05:56:19.141Z,1.20
2018-12-12T05:57:24.329Z,1.10
2018-12-12T05:58:29.377Z,1.10
2018-12-12T05:59:34.500Z,1.10
2018-12-12T06:00:40.258Z,1.10
2018-12-12T06:01:46.296Z,1.10
2018-12-12T06:02:52.990Z,1.10
2018-12-12T06:03:58.696Z,1.10
2018-12-12T06:05:04.437Z,1.10
2018-12-12T06:06:14.250Z,1.10
2018-12-12T06:07:19.648Z,1.10
2018-12-12T06:08:24.722Z,1.20
2018-12-12T06:09:29.548Z,1.20
2018-12-12T06:10:34.863Z,1.20
2018-12-12T06:11:41.161Z,1.10
2018-12-12T06:12:47.249Z,1.10
2018-12-12T06:13:52.350Z,1.00
2018-12-12T06:14:58.180Z,1.10
2018-12-12T06:16:04.647Z,1.20
2018-12-12T06:17:09.726Z,1.20
2018-12-12T06:18:14.769Z,1.20
2018-12-12T06:19:19.855Z,1.20
2018-12-12T06:20:25.198Z,1.10
2018-12-12T06:21:30.122Z,1.20
2018-12-12T06:22:37.844Z,1.20
2018-12-12T06:23:42.358Z,1.20
2018-12-12T06:24:47.182Z,1.20
2018-12-12T06:25:52.152Z,1.20
2018-12-12T06:26:57.380Z,1.20
2018-12-12T06:28:02.503Z,1.10
2018-12-12T06:29:07.608Z,1.20
2018-12-12T06:30:13.043Z,1.20
2018-12-12T06:31:18.212Z,1.00
2018-12-12T06:32:23.119Z,1.00
2018-12-12T06:33:28.499Z,1.00
2018-12-12T06:34:33.713Z,1.00
2018-12-12T06:35:38.998Z,1.00
2018-12-12T06:36:43.746Z,1.10
2018-12-12T06:37:49.248Z,1.00
2018-12-12T06:38:54.043Z,1.00
2018-12-12T06:39:59.057Z,1.00
2018-12-12T06:41:04.189Z,1.00
2018-12-12T06:42:09.289Z,1.00
2018-12-12T06:43:14.518Z,0.90
2018-12-12T06:44:19.110Z,1.00
2018-12-12T06:45:24.178Z,1.00
2018-12-12T06:46:30.011Z,1.00
2018-12-12T06:47:34.523Z,1.00
2018-12-12T06:48:39.519Z,1.00
2018-12-12T06:49:44.545Z,1.10
2018-12-12T06:50:49.728Z,1.10
2018-12-12T06:51:54.628Z,1.10
2018-12-12T06:52:59.364Z,1.10
2018-12-12T06:54:04.049Z,1.10
2018-12-12T06:55:09.449Z,1.10
2018-12-12T06:56:14.152Z,1.10
2018-12-12T06:57:18.830Z,1.20
2018-12-12T06:58:24.112Z,1.10
2018-12-12T06:59:29.751Z,1.20
2018-12-12T07:00:34.430Z,1.20
2018-12-12T07:01:39.782Z,1.30
2018-12-12T07:02:45.091Z,1.40
2018-12-12T07:03:50.676Z,1.30
2018-12-12T07:04:56.819Z,1.30
2018-12-12T07:06:02.001Z,1.30
2018-12-12T07:07:07.626Z,1.30
2018-12-12T07:08:12.174Z,1.20
2018-12-12T07:09:16.817Z,1.20
2018-12-12T07:10:22.013Z,1.20
2018-12-12T07:11:26.596Z,1.20
2018-12-12T07:12:32.016Z,1.30
2018-12-12T07:13:37.024Z,1.40
2018-12-12T07:14:41.820Z,1.40
2018-12-12T07:15:46.642Z,1.50
2018-12-12T07:16:51.492Z,1.50
2018-12-12T07:17:56.375Z,1.40
2018-12-12T07:19:01.349Z,1.40
2018-12-12T07:20:06.392Z,1.40
2018-12-12T07:21:12.612Z,1.40
2018-12-12T07:22:17.807Z,1.40
2018-12-12T07:23:22.812Z,1.40
2018-12-12T07:24:28.032Z,1.50
2018-12-12T07:25:32.962Z,1.60
2018-12-12T07:26:38.031Z,1.60
2018-12-12T07:27:42.751Z,1.60
2018-12-12T07:28:47.812Z,1.60
2018-12-12T07:29:53.008Z,1.60
2018-12-12T07:30:58.400Z,1.50
2018-12-12T07:32:03.418Z,1.50
2018-12-12T07:33:08.570Z,1.70
2018-12-12T07:34:13.733Z,1.90
2018-12-12T07:35:18.623Z,1.80
2018-12-12T07:36:23.471Z,1.70
2018-12-12T07:37:28.299Z,1.60
2018-12-12T07:38:33.448Z,1.60
2018-12-12T07:39:38.251Z,1.60
2018-12-12T07:40:43.454Z,1.50
2018-12-12T07:41:50.647Z,1.50
2018-12-12T07:42:57.516Z,1.50
2018-12-12T07:44:20.455Z,1.50
2018-12-12T07:45:42.286Z,1.40
2018-12-12T07:46:59.090Z,1.40
2018-12-12T07:48:06.213Z,1.40
2018-12-12T07:49:28.894Z,1.50
2018-12-12T07:50:52.269Z,1.50
2018-12-12T07:52:14.635Z,1.40
2018-12-12T07:53:19.355Z,1.40
2018-12-12T07:54:24.424Z,1.40
2018-12-12T07:55:29.134Z,1.40
2018-12-12T07:56:33.841Z,1.50
2018-12-12T07:57:38.889Z,1.50
2018-12-12T07:58:43.883Z,1.50
2018-12-12T07:59:49.123Z,1.50
2018-12-12T08:00:54.110Z,1.50
2018-12-12T08:01:59.390Z,1.50
2018-12-12T08:03:06.312Z,1.50
2018-12-12T08:04:11.254Z,1.50
2018-12-12T08:05:16.171Z,1.50
2018-12-12T08:06:22.219Z,1.60
2018-12-12T08:07:27.185Z,1.50
2018-12-12T08:08:32.336Z,1.40
2018-12-12T08:09:37.062Z,1.40
2018-12-12T08:10:41.868Z,1.40
2018-12-12T08:11:46.714Z,1.50
2018-12-12T08:12:51.576Z,1.50
2018-12-12T08:13:56.327Z,1.50
2018-12-12T08:15:01.529Z,1.50
2018-12-12T08:16:06.819Z,1.60
2018-12-12T08:17:11.796Z,1.50
2018-12-12T08:18:17.052Z,1.60
2018-12-12T08:19:21.966Z,1.70
2018-12-12T08:20:27.182Z,1.80
2018-12-12T08:21:33.296Z,1.80
2018-12-12T08:22:38.535Z,1.70
2018-12-12T08:23:43.530Z,1.70
2018-12-12T08:24:48.641Z,1.70
2018-12-12T08:25:53.614Z,1.80
2018-12-12T08:26:58.426Z,1.90
2018-12-12T08:28:03.438Z,1.80
2018-12-12T08:29:08.803Z,1.70
2018-12-12T08:30:13.613Z,1.70
2018-12-12T08:31:19.092Z,1.60
2018-12-12T08:32:24.099Z,1.60
2018-12-12T08:33:29.041Z,1.60
2018-12-12T08:34:33.983Z,1.60
2018-12-12T08:35:39.197Z,1.50
2018-12-12T08:36:44.246Z,1.50
2018-12-12T08:37:49.830Z,1.50
2018-12-12T08:38:55.132Z,1.60
2018-12-12T08:40:00.197Z,1.60
2018-12-12T08:41:05.093Z,1.60
2018-12-12T08:42:10.115Z,1.70
2018-12-12T08:43:15.619Z,1.60
2018-12-12T08:44:20.336Z,1.60
2018-12-12T08:45:25.468Z,1.60
2018-12-12T08:46:30.416Z,1.60
2018-12-12T08:47:35.449Z,1.60
2018-12-12T08:48:40.454Z,1.60
2018-12-12T08:49:45.531Z,1.60
2018-12-12T08:50:50.804Z,1.60
2018-12-12T08:51:55.938Z,1.60
2018-12-12T08:53:01.262Z,1.60
2018-12-12T08:54:06.664Z,1.50
2018-12-12T08:55:17.481Z,1.50
2018-12-12T08:56:18.862Z,1.60
2018-12-12T08:57:23.922Z,1.60
2018-12-12T08:58:28.958Z,1.70
2018-12-12T08:59:34.159Z,1.60
2018-12-12T09:00:39.009Z,1.70
2018-12-12T09:01:43.892Z,1.80
2018-12-12T09:02:49.224Z,1.70
2018-12-12T09:03:54.335Z,1.70
2018-12-12T09:04:59.362Z,1.70
2018-12-12T09:06:04.561Z,1.80
2018-12-12T09:07:10.297Z,1.80
2018-12-12T09:08:15.545Z,1.90
2018-12-12T09:09:20.840Z,2.00
2018-12-12T09:10:26.538Z,2.00
2018-12-12T09:11:31.288Z,2.00
2018-12-12T09:12:36.200Z,1.90
2018-12-12T09:13:41.361Z,1.80
2018-12-12T09:14:46.479Z,1.90
2018-12-12T09:15:51.479Z,1.90
2018-12-12T09:16:56.692Z,2.00
2018-12-12T09:18:01.668Z,2.00
2018-12-12T09:19:07.421Z,2.10
2018-12-12T09:20:12.229Z,2.10
2018-12-12T09:21:17.480Z,2.10
2018-12-12T09:22:22.365Z,2.00
2018-12-12T09:23:27.928Z,1.90
2018-12-12T09:24:32.837Z,2.00
2018-12-12T09:25:37.780Z,2.00
2018-12-12T09:26:42.366Z,2.10
2018-12-12T09:27:47.136Z,2.10
2018-12-12T09:28:54.187Z,2.00
2018-12-12T09:30:01.513Z,1.90
2018-12-12T09:31:08.632Z,2.00
2018-12-12T09:32:15.745Z,2.10
2018-12-12T09:33:24.748Z,2.10
2018-12-12T09:34:32.472Z,2.20
2018-12-12T09:35:37.301Z,2.20
2018-12-12T09:36:42.221Z,2.20
2018-12-12T09:37:47.304Z,2.10
2018-12-12T09:38:53.433Z,2.30
2018-12-12T09:39:58.469Z,2.30
2018-12-12T09:41:03.339Z,2.20
2018-12-12T09:42:08.551Z,2.20
2018-12-12T09:43:16.309Z,2.10
2018-12-12T09:44:22.260Z,2.10
2018-12-12T09:45:27.629Z,2.10
2018-12-12T09:46:32.656Z,2.20
2018-12-12T09:47:37.900Z,2.20
2018-12-12T09:48:42.483Z,2.20
2018-12-12T09:49:47.345Z,2.10
2018-12-12T09:50:54.485Z,2.10
2018-12-12T09:52:01.667Z,2.00
2018-12-12T09:53:09.211Z,1.90
2018-12-12T09:54:14.425Z,2.00
2018-12-12T09:55:20.418Z,2.10
2018-12-12T09:56:26.764Z,2.10
2018-12-12T09:57:31.998Z,2.10
2018-12-12T09:58:37.299Z,2.00
2018-12-12T09:59:42.659Z,2.00
2018-12-12T10:00:47.687Z,2.00
2018-12-12T10:01:52.909Z,2.00
2018-12-12T10:02:57.902Z,1.90
2018-12-12T10:04:03.145Z,1.90
2018-12-12T10:05:08.137Z,1.90
2018-12-12T10:06:14.754Z,2.00
2018-12-12T10:07:19.706Z,2.10
2018-12-12T10:08:24.595Z,2.00
2018-12-12T10:09:29.478Z,1.80
2018-12-12T10:10:34.459Z,1.90
2018-12-12T10:11:39.643Z,2.00
2018-12-12T10:12:44.848Z,2.00
2018-12-12T10:13:49.900Z,1.90
2018-12-12T10:14:55.756Z,1.90
2018-12-12T10:16:00.976Z,1.90
2018-12-12T10:17:06.806Z,2.00
2018-12-12T10:18:12.009Z,2.10
2018-12-12T10:19:17.367Z,2.00
2018-12-12T10:20:22.611Z,2.00
2018-12-12T10:21:27.929Z,1.90
2018-12-12T10:22:33.031Z,2.00
2018-12-12T10:23:37.865Z,2.00
2018-12-12T10:24:42.649Z,2.00
2018-12-12T10:25:48.449Z,2.20
2018-12-12T10:26:53.547Z,2.30
2018-12-12T10:27:58.517Z,2.30
2018-12-12T10:29:03.499Z,2.40
2018-12-12T10:30:09.329Z,2.40
2018-12-12T10:31:14.331Z,2.40
2018-12-12T10:32:19.781Z,2.40
2018-12-12T10:33:24.889Z,2.40
2018-12-12T10:34:29.877Z,2.40
2018-12-12T10:35:34.783Z,2.30
2018-12-12T10:36:39.667Z,2.20
2018-12-12T10:37:44.560Z,2.20
2018-12-12T10:38:49.350Z,2.40
2018-12-12T10:39:54.235Z,2.50
2018-12-12T10:40:59.343Z,2.50
2018-12-12T10:42:04.197Z,2.50
2018-12-12T10:43:09.393Z,2.40
2018-12-12T10:44:14.391Z,2.40
2018-12-12T10:45:19.526Z,2.50
2018-12-12T10:46:24.600Z,2.50
2018-12-12T10:47:30.747Z,2.40
2018-12-12T10:48:35.926Z,2.50
2018-12-12T10:49:40.778Z,2.50
2018-12-12T10:50:46.069Z,2.50
2018-12-12T10:51:51.287Z,2.60
2018-12-12T10:52:56.416Z,2.60
2018-12-12T10:54:01.513Z,2.50
2018-12-12T10:55:06.504Z,2.50
2018-12-12T10:56:11.407Z,2.50
2018-12-12T10:57:17.060Z,2.60
2018-12-12T10:58:22.020Z,2.50
2018-12-12T10:59:27.814Z,2.40
2018-12-12T11:00:34.613Z,2.40
2018-12-12T11:01:44.719Z,2.50
2018-12-12T11:02:51.714Z,2.50
2018-12-12T11:03:56.784Z,2.40
2018-12-12T11:05:01.748Z,2.40
2018-12-12T11:06:06.685Z,2.30
2018-12-12T11:07:11.787Z,2.30
2018-12-12T11:08:16.807Z,2.30
2018-12-12T11:09:21.731Z,2.30
2018-12-12T11:10:27.101Z,2.40
2018-12-12T11:11:32.167Z,2.40
2018-12-12T11:12:37.218Z,2.40
2018-12-12T11:13:42.168Z,2.40
2018-12-12T11:14:47.448Z,2.40
2018-12-12T11:15:52.604Z,2.40
2018-12-12T11:16:57.178Z,2.40
2018-12-12T11:18:01.968Z,2.40
2018-12-12T11:19:06.728Z,2.40
2018-12-12T11:20:12.250Z,2.40
2018-12-12T11:21:17.182Z,2.50
2018-12-12T11:22:22.381Z,2.50
2018-12-12T11:23:27.236Z,2.50
2018-12-12T11:24:32.183Z,2.60
2018-12-12T11:25:37.015Z,2.50
2018-12-12T11:26:41.798Z,2.50
2018-12-12T11:27:46.740Z,2.40
2018-12-12T11:28:51.474Z,2.30
2018-12-12T11:29:56.237Z,2.30
2018-12-12T11:31:00.989Z,2.40
2018-12-12T11:32:06.195Z,2.40
2018-12-12T11:33:11.120Z,2.50
2018-12-12T11:34:16.442Z,2.40
2018-12-12T11:35:21.682Z,2.50
2018-12-12T11:36:26.935Z,2.50
2018-12-12T11:37:33.271Z,2.40
2018-12-12T11:38:38.905Z,2.20
2018-12-12T11:39:43.770Z,2.20
2018-12-12T11:40:49.097Z,2.20
2018-12-12T11:41:54.514Z,2.20
2018-12-12T11:42:59.521Z,2.30
2018-12-12T11:44:04.440Z,2.40
2018-12-12T11:45:09.163Z,2.50
2018-12-12T11:46:14.379Z,2.50
2018-12-12T11:47:19.425Z,2.40
2018-12-12T11:48:24.329Z,2.40
2018-12-12T11:49:29.161Z,2.50
2018-12-12T11:50:34.248Z,2.50
2018-12-12T11:51:39.383Z,2.50
2018-12-12T11:52:44.363Z,2.50
2018-12-12T11:53:48.993Z,2.60
2018-12-12T11:54:53.889Z,2.50
2018-12-12T11:55:59.032Z,2.40
2018-12-12T11:57:04.229Z,2.30
2018-12-12T11:58:09.202Z,2.30
2018-12-12T11:59:14.333Z,2.40
2018-12-12T12:00:19.897Z,2.50
2018-12-12T12:01:25.373Z,2.40
2018-12-12T12:02:35.636Z,2.50
2018-12-12T12:03:38.023Z,2.50
2018-12-12T12:04:43.423Z,2.40
2018-12-12T12:05:48.160Z,2.40
2018-12-12T12:06:53.520Z,2.30
2018-12-12T12:07:58.711Z,2.30
2018-12-12T12:09:04.368Z,2.30
2018-12-12T12:10:11.522Z,2.30
2018-12-12T12:11:16.115Z,2.30
2018-12-12T12:12:23.287Z,2.30
2018-12-12T12:13:30.299Z,2.40
2018-12-12T12:14:35.295Z,2.50
2018-12-12T12:15:40.252Z,2.50
2018-12-12T12:16:44.928Z,2.50
2018-12-12T12:17:49.759Z,2.60
2018-12-12T12:18:54.798Z,2.70
2018-12-12T12:20:00.528Z,2.60
2018-12-12T12:21:05.887Z,2.60
2018-12-12T12:22:10.795Z,2.70
2018-12-12T12:23:15.809Z,2.70
2018-12-12T12:24:20.997Z,2.70
2018-12-12T12:25:25.730Z,2.60
2018-12-12T12:26:30.866Z,2.70
2018-12-12T12:27:35.980Z,2.60
2018-12-12T12:28:41.265Z,2.60
2018-12-12T12:29:46.588Z,2.60
2018-12-12T12:30:51.637Z,2.50
2018-12-12T12:31:56.697Z,2.60
2018-12-12T12:33:01.453Z,2.60
2018-12-12T12:34:06.585Z,2.50
2018-12-12T12:35:12.611Z,2.50
2018-12-12T12:36:17.506Z,2.60
2018-12-12T12:37:22.889Z,2.50
2018-12-12T12:38:28.145Z,2.40
2018-12-12T12:39:33.495Z,2.60
2018-12-12T12:40:38.968Z,2.70
2018-12-12T12:41:44.699Z,2.60
2018-12-12T12:42:49.790Z,2.50
2018-12-12T12:43:54.774Z,2.50
2018-12-12T12:44:59.716Z,2.50
2018-12-12T12:46:04.706Z,2.50
2018-12-12T12:47:09.319Z,2.40
2018-12-12T12:48:14.545Z,2.40
2018-12-12T12:49:19.845Z,2.40
2018-12-12T12:50:24.963Z,2.40
2018-12-12T12:51:29.996Z,2.50
2018-12-12T12:52:35.124Z,2.50
2018-12-12T12:53:39.967Z,2.50
2018-12-12T12:54:45.126Z,2.50
2018-12-12T12:55:50.335Z,2.60
2018-12-12T12:56:55.383Z,2.70
2018-12-12T12:57:59.841Z,2.60
2018-12-12T12:59:05.070Z,2.60
2018-12-12T13:00:10.326Z,2.60
2018-12-12T13:01:16.143Z,2.60
2018-12-12T13:02:20.853Z,2.60
2018-12-12T13:03:26.541Z,2.60
2018-12-12T13:04:31.739Z,2.70
2018-12-12T13:05:36.999Z,2.70
2018-12-12T13:06:41.954Z,2.80
2018-12-12T13:07:47.158Z,2.80
2018-12-12T13:08:54.354Z,2.70
2018-12-12T13:09:59.918Z,2.90
2018-12-12T13:11:04.928Z,3.00
2018-12-12T13:12:10.458Z,2.90
2018-12-12T13:13:16.243Z,2.90
2018-12-12T13:14:21.398Z,2.90
2018-12-12T13:15:28.276Z,3.00
2018-12-12T13:16:33.579Z,3.00
2018-12-12T13:17:38.791Z,2.90
2018-12-12T13:18:43.828Z,2.90
2018-12-12T13:19:48.661Z,2.80
2018-12-12T13:20:54.574Z,2.90
2018-12-12T13:21:59.606Z,3.00
2018-12-12T13:23:04.761Z,3.00
2018-12-12T13:24:09.781Z,3.10
2018-12-12T13:25:14.819Z,3.00
2018-12-12T13:26:19.964Z,2.80
2018-12-12T13:27:25.330Z,2.80
2018-12-12T13:28:30.495Z,2.80
2018-12-12T13:29:35.923Z,2.80
2018-12-12T13:30:41.076Z,2.70
2018-12-12T13:31:47.113Z,2.60
2018-12-12T13:32:52.213Z,2.60
2018-12-12T13:33:57.193Z,2.70
2018-12-12T13:35:02.802Z,2.70
2018-12-12T13:36:07.927Z,2.70
2018-12-12T13:37:13.108Z,2.80
2018-12-12T13:38:18.340Z,2.70
2018-12-12T13:39:23.527Z,2.70
2018-12-12T13:40:30.826Z,2.80
2018-12-12T13:41:35.632Z,2.90
2018-12-12T13:42:40.683Z,2.80
2018-12-12T13:43:45.487Z,2.70
2018-12-12T13:44:50.277Z,2.70
2018-12-12T13:45:55.563Z,2.60
2018-12-12T13:47:00.827Z,2.50
2018-12-12T13:48:05.773Z,2.60
2018-12-12T13:49:11.043Z,2.70
2018-12-12T13:50:15.917Z,2.70
2018-12-12T13:51:21.079Z,2.60
2018-12-12T13:52:26.421Z,2.70
2018-12-12T13:53:31.397Z,2.80
2018-12-12T13:54:37.089Z,2.60
2018-12-12T13:55:42.195Z,2.70
2018-12-12T13:56:46.991Z,2.60
2018-12-12T13:57:51.934Z,2.60
2018-12-12T13:58:57.278Z,2.70
2018-12-12T14:00:02.559Z,2.70
2018-12-12T14:01:07.828Z,2.70
2018-12-12T14:02:13.126Z,2.80
2018-12-12T14:03:18.110Z,2.90
2018-12-12T14:04:23.249Z,2.90
2018-12-12T14:05:28.339Z,3.00
2018-12-12T14:06:33.563Z,3.00
2018-12-12T14:07:38.680Z,2.90
2018-12-12T14:08:44.158Z,2.90
2018-12-12T14:09:49.241Z,2.90
2018-12-12T14:10:54.428Z,2.90
2018-12-12T14:11:59.541Z,2.90
2018-12-12T14:13:04.421Z,2.90
2018-12-12T14:14:09.288Z,2.80
2018-12-12T14:15:14.372Z,2.80
2018-12-12T14:16:19.649Z,2.80
2018-12-12T14:17:25.540Z,2.90
2018-12-12T14:18:30.640Z,3.00
2018-12-12T14:19:35.475Z,3.00
2018-12-12T14:20:40.085Z,3.00
2018-12-12T14:21:44.987Z,2.90
2018-12-12T14:22:49.975Z,2.80
2018-12-12T14:23:55.032Z,2.90
2018-12-12T14:25:00.114Z,3.00
2018-12-12T14:26:05.420Z,3.00
2018-12-12T14:27:10.547Z,3.10
2018-12-12T14:28:15.266Z,3.10
2018-12-12T14:29:20.289Z,3.00
2018-12-12T14:30:25.453Z,2.90